Time;durP1;ratioP1;P1;durP2;ratioP2;P2;SDS_P1;SDS_P2;PMS_P1;PMS_P2;Temp;Humidity;BMP_temperature;BMP_pressure;BME280_temperature;BME280_humidity;BME280_pressure;Samples;Min_cycle;Max_cycle;Signal;HPM_P1;HPM_P2
2022/11/04 00:01:35;;;;;;;2.28;1.50;;;13.10;99.90;;;;;;5030587;28;20189;-76
2022/11/04 00:04:01;;;;;;;2.50;1.45;;;13.10;99.90;;;;;;5031494;28;20166;-76
2022/11/04 00:06:27;;;;;;;2.23;0.90;;;13.10;99.90;;;;;;5031833;28;20626;-76
2022/11/04 00:08:55;;;;;;;1.50;0.70;;;13.10;99.90;;;;;;5014044;28;20170;-76
2022/11/04 00:14:08;;;;;;;1.40;0.85;;;13.00;99.90;;;;;;5013947;28;20220;-76
2022/11/04 00:19:20;;;;;;;3.97;2.00;;;13.00;99.90;;;;;;5031885;28;20177;-76
2022/11/04 00:29:58;;;;;;;2.22;1.13;;;12.80;99.90;;;;;;5023242;28;20284;-76
2022/11/04 00:35:10;;;;;;;1.50;0.70;;;12.80;99.90;;;;;;5036482;28;20209;-76
2022/11/04 00:37:37;;;;;;;1.70;0.60;;;12.80;99.90;;;;;;5030269;28;20509;-76
2022/11/04 00:40:03;;;;;;;1.63;0.60;;;12.90;99.90;;;;;;5033306;28;20267;-76
2022/11/04 00:42:29;;;;;;;1.20;0.60;;;12.90;99.90;;;;;;5031477;28;20197;-76
2022/11/04 00:44:55;;;;;;;1.30;0.67;;;12.90;99.90;;;;;;5031581;28;20204;-76
2022/11/04 00:47:20;;;;;;;1.40;0.60;;;12.90;99.90;;;;;;5030354;28;20161;-76
2022/11/04 00:49:46;;;;;;;1.97;0.70;;;12.90;99.90;;;;;;5031560;28;20166;-76
2022/11/04 00:52:12;;;;;;;2.37;0.80;;;12.90;99.90;;;;;;5031405;28;20165;-76
2022/11/04 00:54:37;;;;;;;1.50;0.80;;;12.90;99.90;;;;;;5031366;28;20662;-76
2022/11/04 00:57:03;;;;;;;2.17;1.00;;;12.90;99.90;;;;;;5031346;28;20162;-76
2022/11/04 00:59:29;;;;;;;2.27;0.90;;;12.90;99.90;;;;;;5031549;28;20248;-76
2022/11/04 01:01:55;;;;;;;2.03;0.90;;;12.90;99.90;;;;;;5032144;28;20600;-76
2022/11/04 01:04:21;;;;;;;1.73;0.82;;;12.90;99.90;;;;;;5035442;28;20165;-76
2022/11/04 01:06:47;;;;;;;2.60;0.80;;;13.00;99.90;;;;;;5035840;28;20177;-76
2022/11/04 01:09:13;;;;;;;2.27;1.03;;;13.00;99.90;;;;;;5036154;28;20232;-76
2022/11/04 01:11:39;;;;;;;1.47;0.70;;;13.00;99.90;;;;;;5038728;28;20228;-76
2022/11/04 01:14:04;;;;;;;1.23;0.60;;;13.00;99.90;;;;;;5017448;28;20673;-76
2022/11/04 01:16:30;;;;;;;1.67;0.80;;;13.00;99.90;;;;;;5035327;28;20166;-76
2022/11/04 01:18:56;;;;;;;2.67;0.80;;;13.00;99.90;;;;;;5035270;28;20165;-76
2022/11/04 01:21:22;;;;;;;1.23;0.55;;;13.10;99.90;;;;;;5033806;28;20216;-76
2022/11/04 01:23:48;;;;;;;1.67;0.63;;;13.10;99.90;;;;;;5034981;28;20190;-76
2022/11/04 01:26:20;;;;;;;2.30;0.60;;;13.10;99.90;;;;;;5035127;28;20176;-75
2022/11/04 01:28:46;;;;;;;1.58;1.23;;;13.10;99.90;;;;;;5017579;28;20170;-76
2022/11/04 01:31:31;;;;;;;1.63;0.60;;;13.10;99.90;;;;;;5033736;28;20224;-76
2022/11/04 01:33:57;;;;;;;1.80;0.70;;;13.10;99.90;;;;;;5033581;28;20771;-76
2022/11/04 01:36:25;;;;;;;1.30;0.60;;;13.10;99.90;;;;;;5035025;28;20556;-75
2022/11/04 01:38:51;;;;;;;1.15;0.50;;;13.00;99.90;;;;;;5035083;28;20170;-76
2022/11/04 01:41:19;;;;;;;1.20;0.60;;;13.00;99.90;;;;;;5027717;28;20205;-76
2022/11/04 01:43:49;;;;;;;1.60;0.60;;;13.00;99.90;;;;;;5013831;28;20261;-76
2022/11/04 01:46:42;;;;;;;1.30;0.60;;;12.90;99.90;;;;;;5015655;28;20177;-76
2022/11/04 01:49:08;;;;;;;1.35;0.60;;;12.80;99.90;;;;;;5015902;28;20253;-75
2022/11/04 01:51:36;;;;;;;1.30;0.60;;;12.80;99.90;;;;;;5014943;28;20224;-76
2022/11/04 01:54:05;;;;;;;2.70;0.50;;;12.70;99.90;;;;;;5014024;28;20230;-76
2022/11/04 01:56:32;;;;;;;2.83;0.52;;;12.70;99.90;;;;;;5026613;28;20529;-76
2022/11/04 01:59:04;;;;;;;1.25;0.50;;;12.60;99.90;;;;;;5008586;28;20161;-76
2022/11/04 02:01:30;;;;;;;1.48;0.50;;;12.50;99.90;;;;;;5034209;28;20190;-76
2022/11/04 02:04:24;;;;;;;1.53;0.50;;;12.50;99.90;;;;;;5034243;28;20208;-76
2022/11/04 02:06:48;;;;;;;1.30;0.60;;;12.40;99.90;;;;;;5034156;28;20621;-76
2022/11/04 02:09:16;;;;;;;1.50;0.65;;;12.30;99.90;;;;;;5032812;28;20228;-76
2022/11/04 02:14:27;;;;;;;1.55;0.70;;;12.30;99.90;;;;;;5013589;28;20236;-76
2022/11/04 02:17:00;;;;;;;2.67;0.60;;;12.20;99.90;;;;;;5014468;28;20531;-76
2022/11/04 02:19:26;;;;;;;1.45;0.63;;;12.20;99.90;;;;;;5014460;28;20201;-76
2022/11/04 02:22:13;;;;;;;1.50;0.60;;;12.10;99.90;;;;;;5014247;28;20237;-76
2022/11/04 02:24:46;;;;;;;2.17;0.50;;;12.10;99.90;;;;;;4983021;28;20182;-75
2022/11/04 02:27:42;;;;;;;2.30;0.50;;;12.00;99.90;;;;;;5014871;28;20178;-75
2022/11/04 02:30:19;;;;;;;1.90;0.50;;;12.00;99.90;;;;;;4976953;28;20245;-76
2022/11/04 02:33:09;;;;;;;1.80;0.70;;;12.00;99.90;;;;;;5013760;28;20166;-75
2022/11/04 02:35:42;;;;;;;2.97;0.63;;;11.90;99.90;;;;;;5014083;28;20170;-76
2022/11/04 02:38:17;;;;;;;2.33;1.42;;;11.90;99.90;;;;;;5013724;28;20250;-75
2022/11/04 02:41:14;;;;;;;3.67;0.80;;;11.80;99.90;;;;;;4996112;28;20252;-75
2022/11/04 02:44:14;;;;;;;1.60;0.70;;;11.70;99.90;;;;;;5013532;28;20170;-75
2022/11/04 02:46:51;;;;;;;3.25;0.70;;;11.70;99.90;;;;;;5013954;28;20201;-75
2022/11/04 02:49:32;;;;;;;2.95;0.70;;;11.70;99.90;;;;;;5013913;28;20166;-75
2022/11/04 02:52:03;;;;;;;1.90;0.75;;;11.60;99.90;;;;;;5013495;28;20178;-75
2022/11/04 02:55:01;;;;;;;5.57;0.60;;;11.60;99.90;;;;;;4996337;28;20202;-75
2022/11/04 02:57:31;;;;;;;2.42;0.70;;;11.60;99.90;;;;;;4980907;28;20285;-75
2022/11/04 03:00:09;;;;;;;3.13;0.77;;;11.60;99.90;;;;;;5013687;28;20230;-75
2022/11/04 03:02:43;;;;;;;3.72;0.70;;;11.60;99.90;;;;;;5016770;28;20178;-75
2022/11/04 03:05:14;;;;;;;4.35;0.60;;;11.50;99.90;;;;;;5013475;28;20187;-75
2022/11/04 03:07:42;;;;;;;1.95;0.70;;;11.50;99.90;;;;;;5013510;28;20177;-75
2022/11/04 03:10:19;;;;;;;7.95;1.02;;;11.50;99.90;;;;;;5010288;28;20194;-75
2022/11/04 03:13:05;;;;;;;3.28;0.60;;;11.50;99.90;;;;;;5020020;28;20178;-75
2022/11/04 03:15:34;;;;;;;2.30;0.63;;;11.50;99.90;;;;;;5013275;28;20708;-75
2022/11/04 03:18:37;;;;;;;4.30;0.60;;;11.50;99.90;;;;;;5013199;28;20174;-75
2022/11/04 03:21:08;;;;;;;3.50;0.95;;;11.50;99.90;;;;;;4978136;28;20202;-76
2022/11/04 03:23:35;;;;;;;3.75;0.80;;;11.50;99.90;;;;;;5032756;28;20166;-76
2022/11/04 03:26:13;;;;;;;3.08;0.70;;;11.60;99.90;;;;;;5031799;28;20180;-75
2022/11/04 03:29:26;;;;;;;1.42;0.60;;;11.50;99.90;;;;;;5032992;28;20173;-75
2022/11/04 03:32:04;;;;;;;4.80;0.95;;;11.60;99.90;;;;;;5032623;28;20189;-75
2022/11/04 03:34:30;;;;;;;3.85;0.70;;;11.50;99.90;;;;;;5015161;28;20235;-75
2022/11/04 03:36:56;;;;;;;3.60;0.80;;;11.60;99.90;;;;;;5032743;28;20560;-75
2022/11/04 03:39:22;;;;;;;4.53;0.70;;;11.60;99.90;;;;;;5035977;28;20170;-75
2022/11/04 03:41:53;;;;;;;1.65;0.60;;;11.50;99.90;;;;;;5032319;28;20193;-75
2022/11/04 03:44:19;;;;;;;2.05;0.93;;;11.50;99.90;;;;;;5032383;28;20177;-75
2022/11/04 03:46:45;;;;;;;3.77;0.77;;;11.50;99.90;;;;;;5032740;28;20519;-75
2022/11/04 03:49:12;;;;;;;2.47;0.90;;;11.50;99.90;;;;;;5032514;28;20572;-75
2022/11/04 03:51:38;;;;;;;2.58;1.00;;;11.50;99.90;;;;;;5032268;28;20592;-76
2022/11/04 03:54:04;;;;;;;2.87;0.70;;;11.50;99.90;;;;;;5031951;28;20193;-75
2022/11/04 03:57:04;;;;;;;3.13;0.77;;;11.50;99.90;;;;;;5015054;28;20514;-75
2022/11/04 03:59:33;;;;;;;2.58;0.88;;;11.40;99.90;;;;;;5032388;28;20212;-75
2022/11/04 04:02:12;;;;;;;2.03;0.85;;;11.40;99.90;;;;;;5015184;28;20161;-75
2022/11/04 04:04:51;;;;;;;3.38;0.70;;;11.30;99.90;;;;;;5032241;28;20173;-75
2022/11/04 04:07:30;;;;;;;4.35;1.33;;;11.30;99.90;;;;;;5032242;28;20170;-75
2022/11/04 04:13:10;;;;;;;2.03;0.70;;;11.30;99.90;;;;;;5031739;28;20173;-76
2022/11/04 04:15:51;;;;;;;1.80;0.90;;;11.30;99.90;;;;;;5032961;28;20192;-76
2022/11/04 04:18:25;;;;;;;2.92;0.70;;;11.20;99.90;;;;;;5033248;28;20526;-76
2022/11/04 04:20:53;;;;;;;2.85;0.70;;;11.20;99.90;;;;;;5031849;28;20196;-75
2022/11/04 04:29:09;;;;;;;4.00;0.80;;;11.10;99.90;;;;;;5031840;28;20637;-76
2022/11/04 04:31:50;;;;;;;4.45;0.80;;;11.10;99.90;;;;;;5031599;28;20212;-75
2022/11/04 04:34:25;;;;;;;2.60;0.85;;;11.10;99.90;;;;;;5029521;28;20220;-75
2022/11/04 04:36:58;;;;;;;3.75;0.95;;;11.10;99.90;;;;;;5012704;28;20625;-75
2022/11/04 04:45:04;;;;;;;5.82;0.88;;;11.10;99.90;;;;;;5034203;28;20176;-82
2022/11/04 04:47:45;;;;;;;2.13;0.70;;;11.00;99.90;;;;;;5032430;28;20265;-81
2022/11/04 04:50:19;;;;;;;9.13;1.10;;;11.00;99.90;;;;;;5031325;28;20736;-81
2022/11/04 04:52:48;;;;;;;4.40;0.90;;;11.00;99.90;;;;;;5025843;28;20181;-81
2022/11/04 04:55:15;;;;;;;4.43;0.80;;;11.00;99.90;;;;;;5014498;28;20166;-81
2022/11/04 04:57:41;;;;;;;2.10;0.73;;;11.00;99.90;;;;;;5011843;28;20316;-81
2022/11/04 05:00:11;;;;;;;3.45;0.82;;;11.00;99.90;;;;;;5012968;28;20194;-81
2022/11/04 05:02:36;;;;;;;4.97;0.80;;;11.00;99.90;;;;;;5012198;28;20304;-81
2022/11/04 05:05:02;;;;;;;2.70;0.70;;;11.00;99.90;;;;;;5012824;28;20605;-81
2022/11/04 05:07:28;;;;;;;4.40;0.80;;;11.00;99.90;;;;;;5012325;28;20248;-81
2022/11/04 05:09:54;;;;;;;3.93;1.20;;;11.00;99.90;;;;;;5011856;28;20597;-81
2022/11/04 05:12:20;;;;;;;2.53;0.90;;;11.00;99.90;;;;;;4993718;28;20473;-81
2022/11/04 05:14:45;;;;;;;3.47;0.90;;;10.90;99.90;;;;;;5011706;28;20593;-81
2022/11/04 05:17:11;;;;;;;3.07;0.80;;;10.90;99.90;;;;;;5010492;28;20623;-81
2022/11/04 05:19:37;;;;;;;7.43;0.70;;;10.90;99.90;;;;;;5010349;28;20182;-81
2022/11/04 05:22:03;;;;;;;3.50;1.07;;;10.90;99.90;;;;;;5011353;28;20170;-81
2022/11/04 05:24:29;;;;;;;5.22;1.10;;;10.90;99.90;;;;;;5011681;28;20190;-81
2022/11/04 05:26:55;;;;;;;8.90;1.70;;;10.90;99.90;;;;;;5011914;28;20170;-81
2022/11/04 05:29:21;;;;;;;3.00;0.90;;;10.80;99.90;;;;;;4994250;28;20178;-81
2022/11/04 05:31:47;;;;;;;5.68;1.10;;;10.90;99.90;;;;;;5016255;28;20281;-81
2022/11/04 05:34:13;;;;;;;4.33;1.27;;;10.90;99.90;;;;;;5028152;28;20273;-81
2022/11/04 05:36:39;;;;;;;4.90;1.00;;;10.80;99.90;;;;;;5015774;28;20581;-81
2022/11/04 05:39:05;;;;;;;2.50;1.10;;;10.80;99.90;;;;;;5031221;28;20268;-81
2022/11/04 05:41:32;;;;;;;5.53;1.10;;;10.80;99.90;;;;;;5019367;28;20644;-81
2022/11/04 05:44:03;;;;;;;2.08;1.00;;;10.80;99.90;;;;;;5026331;28;20186;-81
2022/11/04 05:46:29;;;;;;;4.18;1.13;;;10.80;99.90;;;;;;5014672;28;20565;-81
2022/11/04 05:48:55;;;;;;;4.40;0.90;;;10.80;99.90;;;;;;5025913;28;20220;-82
2022/11/04 05:51:24;;;;;;;4.87;0.80;;;10.80;99.90;;;;;;5025457;28;20284;-80
2022/11/04 05:53:49;;;;;;;2.85;1.10;;;10.80;99.90;;;;;;5020618;28;20721;-81
2022/11/04 05:56:15;;;;;;;6.10;1.30;;;10.80;99.90;;;;;;5029060;28;20269;-81
2022/11/04 05:58:41;;;;;;;5.20;1.00;;;10.80;99.90;;;;;;5028449;28;20223;-81
2022/11/04 06:01:38;;;;;;;2.13;0.73;;;10.80;99.90;;;;;;5018380;28;20608;-81
2022/11/04 06:04:04;;;;;;;2.92;0.90;;;10.80;99.90;;;;;;5018891;28;20550;-81
2022/11/04 06:06:33;;;;;;;3.50;1.20;;;10.80;99.90;;;;;;5036216;28;20170;-81
2022/11/04 06:08:59;;;;;;;3.60;1.00;;;10.80;99.90;;;;;;5038319;28;20196;-81
2022/11/04 06:11:27;;;;;;;2.88;1.50;;;10.80;99.90;;;;;;5034521;28;20280;-81
2022/11/04 06:13:53;;;;;;;3.78;1.15;;;10.70;99.90;;;;;;5035403;28;20201;-80
2022/11/04 06:16:19;;;;;;;3.65;0.85;;;10.80;99.90;;;;;;5017361;28;20183;-76
2022/11/04 06:18:45;;;;;;;6.23;1.00;;;10.70;99.90;;;;;;5032911;28;20245;-76
2022/11/04 06:21:13;;;;;;;5.30;1.07;;;10.70;99.90;;;;;;5034022;28;20244;-76
2022/11/04 06:23:43;;;;;;;5.30;1.40;;;10.70;99.90;;;;;;5015937;28;20179;-75
2022/11/04 06:26:10;;;;;;;4.07;1.40;;;10.70;99.90;;;;;;5034111;28;20196;-75
2022/11/04 06:28:36;;;;;;;5.32;1.60;;;10.70;99.90;;;;;;5034085;28;20166;-75
2022/11/04 06:31:04;;;;;;;2.90;1.30;;;10.70;99.90;;;;;;5033981;28;20590;-75
2022/11/04 06:33:30;;;;;;;2.67;0.80;;;10.70;99.90;;;;;;5033491;28;20251;-75
2022/11/04 06:35:57;;;;;;;3.85;1.10;;;10.70;99.90;;;;;;5034125;28;20189;-75
2022/11/04 06:38:23;;;;;;;3.00;1.17;;;10.70;99.90;;;;;;5016336;28;20228;-75
2022/11/04 06:40:49;;;;;;;4.03;1.00;;;10.70;99.90;;;;;;5033656;28;20296;-75
2022/11/04 06:43:15;;;;;;;3.45;0.93;;;10.70;99.90;;;;;;5033997;28;20177;-75
2022/11/04 06:45:41;;;;;;;6.90;1.27;;;10.80;99.90;;;;;;5026670;28;20170;-75
2022/11/04 06:48:07;;;;;;;4.27;1.00;;;10.80;99.90;;;;;;5033910;28;20618;-76
2022/11/04 06:50:33;;;;;;;5.27;1.27;;;10.90;99.90;;;;;;5033416;28;20212;-76
2022/11/04 06:52:59;;;;;;;5.72;2.22;;;10.90;99.90;;;;;;5015083;28;20592;-76
2022/11/04 06:55:24;;;;;;;4.27;1.00;;;11.00;99.90;;;;;;5013441;28;20535;-76
2022/11/04 06:57:50;;;;;;;2.27;0.87;;;11.00;99.90;;;;;;5014142;28;20174;-78
2022/11/04 07:00:17;;;;;;;4.30;1.40;;;11.10;99.90;;;;;;5013463;28;20186;-77
2022/11/04 07:02:42;;;;;;;4.28;1.30;;;11.20;99.90;;;;;;5007504;28;20261;-75
2022/11/04 07:05:08;;;;;;;2.77;1.20;;;11.30;99.90;;;;;;5014852;28;20283;-75
2022/11/04 07:07:34;;;;;;;4.07;1.20;;;11.30;99.90;;;;;;5036472;28;20572;-75
2022/11/04 07:10:00;;;;;;;3.80;1.10;;;11.40;99.90;;;;;;5034533;28;20596;-75
2022/11/04 07:12:26;;;;;;;3.65;1.00;;;11.40;99.90;;;;;;5033170;28;20565;-76
2022/11/04 07:14:55;;;;;;;3.72;1.05;;;11.50;99.90;;;;;;5015485;28;20193;-76
2022/11/04 07:17:20;;;;;;;4.90;1.02;;;11.50;99.90;;;;;;5033467;28;20178;-75
2022/11/04 07:19:46;;;;;;;6.37;1.03;;;11.50;99.90;;;;;;5033438;28;20577;-75
2022/11/04 07:22:12;;;;;;;3.90;1.10;;;11.50;99.90;;;;;;5039975;28;20161;-76
2022/11/04 07:24:37;;;;;;;5.43;1.10;;;11.60;99.90;;;;;;5033157;28;20173;-76
2022/11/04 07:27:05;;;;;;;2.47;1.17;;;11.60;99.90;;;;;;5015116;28;20178;-76
2022/11/04 07:29:42;;;;;;;4.57;1.02;;;11.70;99.90;;;;;;5015671;28;20505;-76
2022/11/04 07:32:08;;;;;;;3.23;1.00;;;11.70;99.90;;;;;;5032520;28;20224;-76
2022/11/04 07:34:34;;;;;;;4.00;0.90;;;11.80;99.90;;;;;;5032820;28;20190;-75
2022/11/04 07:36:59;;;;;;;2.93;1.00;;;11.80;99.90;;;;;;5022158;28;20197;-76
2022/11/04 07:39:25;;;;;;;4.07;1.20;;;11.80;99.90;;;;;;5024539;28;20176;-75
2022/11/04 07:41:51;;;;;;;2.17;0.90;;;11.80;99.90;;;;;;5030584;28;20243;-75
2022/11/04 07:44:16;;;;;;;2.93;1.07;;;11.90;99.90;;;;;;5022136;28;20633;-74
2022/11/04 07:46:42;;;;;;;2.30;0.83;;;11.90;99.90;;;;;;5024569;28;20174;-75
2022/11/04 07:49:08;;;;;;;3.10;1.00;;;11.90;99.90;;;;;;4995839;28;20185;-74
2022/11/04 07:51:34;;;;;;;2.80;0.90;;;11.90;99.90;;;;;;5025397;28;20642;-75
2022/11/04 07:54:00;;;;;;;3.93;1.13;;;11.90;99.90;;;;;;4978274;28;20241;-75
2022/11/04 07:56:28;;;;;;;5.00;1.13;;;11.90;99.90;;;;;;5011040;28;20631;-75
2022/11/04 07:58:54;;;;;;;6.38;1.05;;;11.90;99.90;;;;;;4965499;28;20185;-74
2022/11/04 08:01:24;;;;;;;3.00;1.00;;;12.00;99.90;;;;;;4992271;28;20191;-74
2022/11/04 08:03:51;;;;;;;3.25;1.05;;;11.90;99.90;;;;;;5010434;28;20182;-74
2022/11/04 08:06:19;;;;;;;2.70;1.00;;;11.90;99.90;;;;;;4998021;28;20638;-75
2022/11/04 08:08:46;;;;;;;4.07;1.55;;;11.90;99.90;;;;;;5032001;28;20543;-75
2022/11/04 08:11:16;;;;;;;4.05;1.25;;;11.90;99.90;;;;;;5015813;28;20214;-75
2022/11/04 08:13:42;;;;;;;2.67;1.15;;;11.90;99.90;;;;;;5011180;28;20213;-76
2022/11/04 08:16:14;;;;;;;3.25;1.00;;;11.90;99.90;;;;;;5031742;28;20165;-76
2022/11/04 08:18:41;;;;;;;2.88;1.10;;;11.90;99.90;;;;;;5032034;28;20173;-76
2022/11/04 08:21:08;;;;;;;6.32;1.48;;;11.90;99.90;;;;;;5031897;28;20589;-75
2022/11/04 08:23:34;;;;;;;5.60;1.40;;;11.90;99.90;;;;;;5031891;28;20166;-76
2022/11/04 08:26:00;;;;;;;4.47;1.20;;;12.00;99.90;;;;;;5031939;28;20870;-75
2022/11/04 08:28:28;;;;;;;2.88;2.00;;;12.10;99.90;;;;;;5025080;28;20577;-76
2022/11/04 08:30:57;;;;;;;3.35;1.30;;;12.10;99.90;;;;;;5018568;28;20205;-75
2022/11/04 08:33:24;;;;;;;3.08;1.23;;;12.10;99.90;;;;;;5011571;28;20194;-75
2022/11/04 08:35:51;;;;;;;6.75;1.40;;;12.10;99.90;;;;;;5022863;28;20540;-76
2022/11/04 08:38:16;;;;;;;3.83;1.60;;;12.20;99.90;;;;;;5010953;28;20179;-75
2022/11/04 08:40:42;;;;;;;3.47;1.30;;;12.30;99.90;;;;;;5010575;28;20280;-75
2022/11/04 08:43:08;;;;;;;8.43;1.33;;;12.40;99.90;;;;;;5006426;28;20187;-75
2022/11/04 08:45:42;;;;;;;5.50;1.80;;;12.50;99.90;;;;;;5013880;28;20559;-75
2022/11/04 08:48:09;;;;;;;3.15;1.35;;;12.70;99.90;;;;;;5031380;28;20191;-75
2022/11/04 08:50:35;;;;;;;4.53;1.30;;;12.80;99.90;;;;;;5031151;28;20243;-75
2022/11/04 08:53:01;;;;;;;7.57;1.20;;;13.00;99.90;;;;;;5010043;28;20182;-75
2022/11/04 08:55:31;;;;;;;4.03;1.10;;;13.20;99.90;;;;;;4994958;28;20246;-75
2022/11/04 08:57:57;;;;;;;2.00;1.10;;;13.40;99.90;;;;;;5017284;28;20581;-75
2022/11/04 09:00:23;;;;;;;3.88;1.15;;;13.50;99.90;;;;;;5025643;28;20608;-75
2022/11/04 09:02:49;;;;;;;3.38;1.00;;;13.60;99.90;;;;;;5009649;28;20185;-75
2022/11/04 09:05:15;;;;;;;2.87;1.20;;;13.60;99.90;;;;;;5011132;28;20175;-75
2022/11/04 09:07:42;;;;;;;3.70;1.30;;;13.60;99.90;;;;;;5003214;28;20210;-75
2022/11/04 09:10:09;;;;;;;3.83;1.00;;;13.60;99.90;;;;;;5018032;28;21092;-74
2022/11/04 09:12:35;;;;;;;4.20;1.37;;;13.60;99.90;;;;;;5021153;28;20644;-75
2022/11/04 09:15:01;;;;;;;3.87;1.10;;;13.60;99.90;;;;;;5028226;28;20632;-75
2022/11/04 09:17:27;;;;;;;5.43;1.57;;;13.70;99.90;;;;;;5007919;28;20648;-75
2022/11/04 09:19:53;;;;;;;3.77;1.27;;;13.90;99.90;;;;;;5030038;28;20581;-75
2022/11/04 09:22:19;;;;;;;3.03;1.30;;;14.20;99.90;;;;;;5031211;28;20579;-76
2022/11/04 09:24:45;;;;;;;4.30;1.47;;;14.80;99.90;;;;;;5033487;28;21257;-76
2022/11/04 09:27:10;;;;;;;3.20;1.10;;;15.40;99.90;;;;;;5011129;28;20178;-75
2022/11/04 09:29:36;;;;;;;3.43;1.10;;;15.90;99.90;;;;;;5013106;28;20228;-76
2022/11/04 09:32:03;;;;;;;6.13;1.30;;;16.10;99.90;;;;;;5016214;28;20174;-75
2022/11/04 09:34:29;;;;;;;3.60;1.70;;;16.30;99.90;;;;;;4997913;28;20212;-76
2022/11/04 09:36:56;;;;;;;3.80;1.40;;;16.40;99.90;;;;;;4996942;28;21091;-75
2022/11/04 09:39:23;;;;;;;2.90;1.27;;;16.40;99.90;;;;;;5014741;28;20672;-75
2022/11/04 09:42:13;;;;;;;3.03;1.00;;;16.30;99.90;;;;;;5014064;28;20695;-75
2022/11/04 09:44:48;;;;;;;3.60;1.43;;;16.10;99.90;;;;;;5014018;28;21171;-75
2022/11/04 09:47:15;;;;;;;3.83;1.50;;;16.00;99.90;;;;;;5021786;28;21069;-75
2022/11/04 09:49:44;;;;;;;3.03;1.23;;;15.80;99.90;;;;;;5013410;28;20690;-76
2022/11/04 09:52:31;;;;;;;3.80;1.33;;;15.70;99.90;;;;;;5013816;28;20735;-75
2022/11/04 09:55:18;;;;;;;5.20;1.50;;;15.50;99.90;;;;;;5010172;28;20716;-76
2022/11/04 09:57:52;;;;;;;3.03;1.07;;;15.50;99.90;;;;;;5012947;28;20913;-75
2022/11/04 10:00:19;;;;;;;2.67;1.30;;;15.50;99.90;;;;;;4995472;28;21389;-75
2022/11/04 10:03:04;;;;;;;8.27;1.10;;;15.50;99.90;;;;;;4978873;28;20565;-75
2022/11/04 10:05:58;;;;;;;3.67;1.33;;;15.50;99.90;;;;;;4996101;28;20571;-75
2022/11/04 10:08:49;;;;;;;4.43;1.30;;;15.40;99.90;;;;;;5009330;28;20680;-75
2022/11/04 10:11:22;;;;;;;5.27;1.60;;;15.30;99.90;;;;;;5022202;28;20617;-75
2022/11/04 10:14:07;;;;;;;4.07;1.30;;;15.50;99.90;;;;;;5017583;28;21027;-75
2022/11/04 10:16:42;;;;;;;4.30;1.40;;;15.70;99.90;;;;;;5015641;28;20575;-75
2022/11/04 10:19:27;;;;;;;4.40;1.60;;;15.90;99.90;;;;;;5033965;28;20820;-75
2022/11/04 10:22:37;;;;;;;6.27;1.77;;;16.00;99.90;;;;;;5012927;28;21485;-75
2022/11/04 10:25:08;;;;;;;2.73;1.10;;;16.20;99.90;;;;;;5003096;28;20954;-75
2022/11/04 10:27:37;;;;;;;3.60;1.63;;;16.30;99.90;;;;;;5019544;28;20565;-75
2022/11/04 10:30:15;;;;;;;4.83;1.30;;;16.40;99.90;;;;;;5013676;28;20964;-75
2022/11/04 10:33:04;;;;;;;3.53;1.40;;;16.30;99.90;;;;;;5012228;28;20916;-75
2022/11/04 10:35:59;;;;;;;3.70;1.60;;;16.30;99.90;;;;;;5013168;28;20573;-75
2022/11/04 10:38:53;;;;;;;4.23;1.00;;;16.30;99.90;;;;;;5013593;28;21112;-75
2022/11/04 10:41:19;;;;;;;3.13;1.20;;;16.30;99.90;;;;;;5013319;28;20629;-75
2022/11/04 10:43:46;;;;;;;4.77;1.30;;;16.30;99.90;;;;;;5011895;28;21195;-75
2022/11/04 10:46:29;;;;;;;3.70;1.30;;;16.30;99.90;;;;;;5022087;28;21151;-75
2022/11/04 10:49:16;;;;;;;2.43;1.10;;;16.30;99.90;;;;;;5012294;28;20915;-75
2022/11/04 10:51:43;;;;;;;4.80;1.47;;;16.30;99.90;;;;;;5013660;28;20612;-75
2022/11/04 10:54:10;;;;;;;3.33;1.20;;;16.40;99.90;;;;;;5032626;28;20631;-75
2022/11/04 10:56:43;;;;;;;5.17;1.40;;;16.40;99.90;;;;;;5032685;28;20561;-75
2022/11/04 10:59:15;;;;;;;4.97;1.50;;;16.40;99.90;;;;;;5033228;28;20557;-75
2022/11/04 11:01:50;;;;;;;2.77;1.23;;;16.30;99.90;;;;;;5031324;28;21022;-75
2022/11/04 11:04:30;;;;;;;3.30;1.00;;;16.30;99.90;;;;;;5018729;28;20622;-75
2022/11/04 11:06:58;;;;;;;6.27;1.53;;;16.20;99.90;;;;;;5031709;28;21127;-75
2022/11/04 11:09:28;;;;;;;3.80;1.03;;;16.20;99.90;;;;;;5031729;28;21062;-76
2022/11/04 11:11:59;;;;;;;4.27;1.47;;;16.20;99.90;;;;;;5020183;28;20970;-75
2022/11/04 11:14:29;;;;;;;3.20;1.23;;;16.20;99.90;;;;;;5008131;28;20703;-75
2022/11/04 11:17:14;;;;;;;5.60;2.23;;;16.20;99.90;;;;;;5009889;28;20676;-75
2022/11/04 11:19:58;;;;;;;4.10;2.00;;;16.10;99.90;;;;;;5029227;28;21383;-75
2022/11/04 11:22:34;;;;;;;4.60;1.83;;;16.20;99.90;;;;;;5014534;28;20592;-75
2022/11/04 11:25:23;;;;;;;4.67;1.87;;;16.40;99.90;;;;;;4999063;28;20587;-75
2022/11/04 11:28:04;;;;;;;2.33;1.17;;;16.60;99.90;;;;;;5010937;28;20577;-74
2022/11/04 11:30:44;;;;;;;2.87;1.03;;;16.70;99.90;;;;;;5011591;28;20628;-74
2022/11/04 11:33:16;;;;;;;4.00;1.10;;;16.70;99.90;;;;;;5011132;28;20569;-75
2022/11/04 11:35:50;;;;;;;2.57;1.10;;;16.80;99.90;;;;;;5010266;28;20903;-74
2022/11/04 11:38:22;;;;;;;3.30;1.33;;;16.90;99.90;;;;;;5011228;28;20568;-74
2022/11/04 11:40:51;;;;;;;2.80;1.33;;;17.00;99.90;;;;;;5013911;28;20698;-75
2022/11/04 11:43:39;;;;;;;5.43;2.00;;;17.00;99.90;;;;;;5013044;28;20569;-74
2022/11/04 11:46:05;;;;;;;3.77;1.10;;;17.10;99.90;;;;;;5011708;28;20582;-75
2022/11/04 11:48:43;;;;;;;2.30;1.00;;;17.10;99.90;;;;;;5011942;28;20565;-75
2022/11/04 11:51:13;;;;;;;6.27;0.97;;;17.10;99.90;;;;;;5011768;28;20633;-74
2022/11/04 11:53:56;;;;;;;3.10;0.90;;;17.10;99.90;;;;;;5011976;28;20640;-75
2022/11/04 11:56:37;;;;;;;2.90;1.13;;;17.10;99.90;;;;;;5010990;28;20585;-75
2022/11/04 11:59:26;;;;;;;2.10;0.90;;;17.10;99.90;;;;;;5012009;28;21190;-75
2022/11/04 12:02:10;;;;;;;4.40;0.90;;;17.00;99.90;;;;;;5011473;28;20600;-75
2022/11/04 12:04:36;;;;;;;2.90;1.50;;;17.00;99.90;;;;;;5012322;28;20577;-75
2022/11/04 12:07:41;;;;;;;2.73;1.00;;;17.00;99.90;;;;;;5011982;28;20937;-75
2022/11/04 12:10:26;;;;;;;3.60;1.50;;;17.00;99.90;;;;;;4970371;28;20716;-75
2022/11/04 12:13:15;;;;;;;2.37;1.07;;;17.00;99.90;;;;;;5012451;28;20592;-75
2022/11/04 12:16:13;;;;;;;3.50;1.40;;;16.90;99.90;;;;;;5023570;28;20635;-75
2022/11/04 12:18:52;;;;;;;6.13;1.50;;;16.80;99.90;;;;;;4961053;28;21155;-75
2022/11/04 12:21:32;;;;;;;5.40;1.57;;;16.80;99.90;;;;;;5015199;28;20953;-75
2022/11/04 12:24:26;;;;;;;5.70;2.20;;;16.70;99.90;;;;;;5011418;28;20569;-74
2022/11/04 12:27:18;;;;;;;2.87;1.33;;;16.60;99.90;;;;;;4988889;28;20590;-75
2022/11/04 12:29:58;;;;;;;5.50;2.30;;;16.70;99.90;;;;;;5011743;28;20573;-75
2022/11/04 12:32:52;;;;;;;3.17;1.17;;;16.70;99.90;;;;;;5011714;28;20576;-75
2022/11/04 12:35:46;;;;;;;4.20;1.30;;;16.70;99.90;;;;;;4969035;28;20645;-75
2022/11/04 12:38:46;;;;;;;3.50;1.00;;;16.70;99.90;;;;;;5003460;28;20613;-74
2022/11/04 12:41:15;;;;;;;2.80;0.80;;;16.80;99.90;;;;;;4991735;28;21035;-75
2022/11/04 12:43:50;;;;;;;3.13;0.70;;;16.90;99.90;;;;;;5011184;28;20566;-75
2022/11/04 12:46:25;;;;;;;2.13;0.80;;;16.90;99.90;;;;;;5011585;28;20671;-75
2022/11/04 12:49:07;;;;;;;2.37;0.90;;;16.90;99.90;;;;;;5010487;28;20668;-75
2022/11/04 12:51:56;;;;;;;3.07;0.80;;;17.00;99.90;;;;;;5020281;28;20657;-75
2022/11/04 12:54:48;;;;;;;1.97;0.83;;;17.00;99.90;;;;;;5030881;28;20616;-75
2022/11/04 12:57:20;;;;;;;2.60;0.70;;;16.90;99.90;;;;;;5016327;28;20565;-75
2022/11/04 13:00:01;;;;;;;2.97;0.70;;;16.90;99.90;;;;;;5037533;28;20556;-74
2022/11/04 13:02:39;;;;;;;1.50;0.60;;;16.80;99.90;;;;;;5019865;28;20919;-74
2022/11/04 13:05:36;;;;;;;4.13;0.60;;;16.70;99.90;;;;;;5037755;28;20932;-75
2022/11/04 13:08:14;;;;;;;1.70;0.60;;;16.60;99.90;;;;;;5037711;28;20889;-74
2022/11/04 13:10:52;;;;;;;2.00;0.70;;;16.50;99.90;;;;;;5016825;28;20634;-75
2022/11/04 13:13:24;;;;;;;1.80;0.70;;;16.40;99.90;;;;;;5017619;28;20962;-75
2022/11/04 13:15:57;;;;;;;1.90;0.73;;;16.40;99.90;;;;;;5017601;28;20595;-76
2022/11/04 13:18:29;;;;;;;1.63;0.57;;;16.30;99.90;;;;;;5015066;28;20589;-76
2022/11/04 13:21:18;;;;;;;1.30;0.50;;;16.30;99.90;;;;;;5019984;28;20619;-76
2022/11/04 13:24:03;;;;;;;1.90;0.80;;;16.30;99.90;;;;;;5013569;28;20941;-75
2022/11/04 13:26:29;;;;;;;1.87;0.60;;;16.30;99.90;;;;;;5017835;28;20946;-75
2022/11/04 13:29:20;;;;;;;5.03;0.80;;;16.30;99.90;;;;;;5000223;28;21226;-76
2022/11/04 13:32:06;;;;;;;3.70;0.80;;;16.30;99.90;;;;;;5018124;28;20624;-76
2022/11/04 13:35:00;;;;;;;2.63;0.60;;;16.30;99.90;;;;;;5027708;28;20632;-75
2022/11/04 13:37:36;;;;;;;3.17;0.70;;;16.40;99.90;;;;;;5019323;28;20584;-76
2022/11/04 13:40:40;;;;;;;1.70;0.70;;;16.40;99.90;;;;;;5018674;28;20612;-75
2022/11/04 13:43:38;;;;;;;4.57;0.60;;;16.50;99.90;;;;;;5016599;28;21176;-75
2022/11/04 13:46:14;;;;;;;2.10;0.70;;;16.50;99.90;;;;;;4993732;28;21158;-75
2022/11/04 13:48:59;;;;;;;3.30;0.60;;;16.60;99.90;;;;;;4999748;28;20979;-76
2022/11/04 13:51:41;;;;;;;5.27;1.00;;;16.60;99.90;;;;;;5017057;28;20608;-75